Strona główna
METAR-TAF:

METAR-TAF

Lotnisko :

Port lotniczy Cherbourg-Maupertus

Cherbourg, Francja

Szerokość geograficzna: 49-39N, Długość geograficzna: 001-28W, wysokość: 138 m

Aktualna obserwacja pogody

Raport powstał 24 minut temu, godzina 01:00 UTC
Wiatr 2 kt od północny wschód
Temperatura 5°C
Wilgotność 70%
Ciśnienie 1043 hPa
Widzialność 10 km lub więcej
Brak chmur poniżej 1500 m i brak chmur cumulonimbus

METAR: LFRC 210100Z AUTO 04002KT CAVOK 05/00 Q1043

czas: 02:24 (01:24 UTC)

Prognoza

Raport powstał 11 godziny i 24 minut temu, godzina 14:00 UTC
Prognoza ważna od 20 godzina 15 UTC do 20 godzina 24 UTC
Wiatr 10 kt od północny wschód
Widzialność 10 km lub więcej
Mało chmury na wysokości 2500 ft
Prawdopodobieństwo 30% :
Przejściowo
od 20 godzina 22 UTC do 20 godzina 24 UTC
Widzialność: 4000 m
zamglenie

TAF: LFRC 201400Z 2015/2024 05010KT 9999 FEW025 PROB30 TEMPO 2022/2024 4000 BR

Obserwacja i prognoza pogody dla ponad 4000 lotnisk (raport METAR i TAF).

Dostępne stacje oznaczono żółtymi i czerwonymi punktami na mapie.

Najedź kursorem aby zobaczyć nazwę stacji.

Kliknij aby zobaczyć obserwacje i prognozy pogody.

Aby zmienić mapę: kliknij na zielony przycisk z czarnym krzyżykiem, aby powiększyć; na zielony przycisk z myślnikiem, aby pomniejszyć; na zielone strzałki, aby przejść do map sąsiednich.


METAR-TAF: